N5996K KSEE-L35

Flight info

Callsign N5996K
Flight time N/A
Altitude VFR
Route
Aircraft C182/L-DOV/C

Departure

Time 2026-05-04 03:12
Airport Gillespie Field (KSEE)

Arrival

Time N/A
Airport L35
Time Latitude Longitude Altitude Speed Heading
2026-05-04 03:12 33.15498 -116.94405 8204 ft 101 kts 350°
2026-05-04 03:12 33.16183 -116.94352 8333 ft 99 kts 350°
2026-05-04 03:13 33.16865 -116.94300 8436 ft 100 kts 349°
2026-05-04 03:13 33.17597 -116.94248 8495 ft 111 kts 352°
2026-05-04 03:13 33.18413 -116.94186 8503 ft 124 kts 354°
2026-05-04 03:13 33.19315 -116.94112 8501 ft 134 kts 354°
2026-05-04 03:14 33.20253 -116.94032 8604 ft 131 kts 354°
2026-05-04 03:14 33.21148 -116.93958 8738 ft 128 kts 353°
2026-05-04 03:14 33.22023 -116.93889 8859 ft 124 kts 353°
2026-05-04 03:14 33.22868 -116.93823 8978 ft 121 kts 352°
2026-05-04 03:15 33.23706 -116.93759 9098 ft 121 kts 352°
2026-05-04 03:15 33.24545 -116.93693 9211 ft 119 kts 353°
2026-05-04 03:15 33.25350 -116.93628 9318 ft 113 kts 351°
2026-05-04 03:15 33.26146 -116.93570 9339 ft 117 kts 351°
2026-05-04 03:16 33.26979 -116.93506 9377 ft 121 kts 352°
2026-05-04 03:16 33.27823 -116.93438 9461 ft 122 kts 352°
2026-05-04 03:16 33.28672 -116.93371 9541 ft 121 kts 351°
2026-05-04 03:16 33.29508 -116.93304 9611 ft 120 kts 351°
2026-05-04 03:17 33.30327 -116.93237 9669 ft 116 kts 351°
2026-05-04 03:17 33.31121 -116.93175 9732 ft 112 kts 350°
2026-05-04 03:17 33.31891 -116.93115 9773 ft 111 kts 349°
2026-05-04 03:17 33.32678 -116.93056 9772 ft 115 kts 350°
2026-05-04 03:18 33.33496 -116.92993 9779 ft 119 kts 351°
2026-05-04 03:18 33.34327 -116.92927 9791 ft 124 kts 350°
2026-05-04 03:18 33.35281 -116.92866 9848 ft 148 kts 354°
2026-05-04 03:18 33.36312 -116.92775 10079 ft 148 kts 354°
2026-05-04 03:19 33.37314 -116.92690 10306 ft 145 kts 353°
2026-05-04 03:19 33.38335 -116.92613 10428 ft 153 kts 353°
2026-05-04 03:19 33.39439 -116.92530 10436 ft 164 kts 354°
2026-05-04 03:19 33.40573 -116.92434 10439 ft 164 kts 355°
2026-05-04 03:20 33.41710 -116.92341 10456 ft 163 kts 354°
2026-05-04 03:20 33.42841 -116.92251 10462 ft 163 kts 354°
2026-05-04 03:20 33.43980 -116.92162 10466 ft 164 kts 354°
2026-05-04 03:20 33.45122 -116.92072 10466 ft 164 kts 354°
2026-05-04 03:21 33.46266 -116.91982 10472 ft 165 kts 354°
2026-05-04 03:21 33.47411 -116.91892 10475 ft 165 kts 354°
2026-05-04 03:21 33.48558 -116.91801 10476 ft 165 kts 354°
2026-05-04 03:21 33.49703 -116.91711 10477 ft 165 kts 354°
2026-05-04 03:22 33.50847 -116.91620 10479 ft 165 kts 354°
2026-05-04 03:22 33.51997 -116.91530 10480 ft 166 kts 354°
2026-05-04 03:22 33.53156 -116.91439 10482 ft 167 kts 355°
2026-05-04 03:22 33.54310 -116.91347 10485 ft 166 kts 355°
2026-05-04 03:23 33.55463 -116.91255 10483 ft 166 kts 355°
2026-05-04 03:23 33.56617 -116.91165 10487 ft 166 kts 354°
2026-05-04 03:23 33.57768 -116.91073 10491 ft 166 kts 355°
2026-05-04 03:23 33.58905 -116.90983 10494 ft 166 kts 355°
2026-05-04 03:24 33.60056 -116.90893 10491 ft 166 kts 355°
2026-05-04 03:24 33.61205 -116.90802 10498 ft 166 kts 355°
2026-05-04 03:24 33.62356 -116.90711 10499 ft 166 kts 355°
2026-05-04 03:24 33.63506 -116.90619 10504 ft 165 kts 355°
2026-05-04 03:25 33.64654 -116.90528 10499 ft 164 kts 354°
2026-05-04 03:25 33.65772 -116.90438 10504 ft 160 kts 355°
2026-05-04 03:25 33.66890 -116.90352 10502 ft 162 kts 355°
2026-05-04 03:25 33.68024 -116.90263 10505 ft 164 kts 355°
2026-05-04 03:26 33.69167 -116.90172 10507 ft 164 kts 355°
2026-05-04 03:26 33.70299 -116.90081 10499 ft 161 kts 355°
2026-05-04 03:26 33.71415 -116.89992 10499 ft 161 kts 354°
2026-05-04 03:26 33.72534 -116.89904 10505 ft 162 kts 354°
2026-05-04 03:27 33.73649 -116.89816 10524 ft 163 kts 355°
2026-05-04 03:27 33.74796 -116.89725 10522 ft 163 kts 355°
2026-05-04 03:27 33.75931 -116.89635 10523 ft 163 kts 355°
2026-05-04 03:27 33.77067 -116.89544 10524 ft 164 kts 355°
2026-05-04 03:28 33.78200 -116.89455 10520 ft 165 kts 355°
2026-05-04 03:28 33.79349 -116.89363 10524 ft 166 kts 355°
2026-05-04 03:28 33.80504 -116.89272 10517 ft 166 kts 355°
2026-05-04 03:28 33.81663 -116.89179 10512 ft 166 kts 355°
2026-05-04 03:29 33.82823 -116.89088 10513 ft 167 kts 355°
2026-05-04 03:29 33.83983 -116.88995 10505 ft 167 kts 355°
2026-05-04 03:29 33.85147 -116.88902 10500 ft 168 kts 355°
2026-05-04 03:29 33.86313 -116.88809 10496 ft 169 kts 355°
2026-05-04 03:30 33.87488 -116.88716 10489 ft 170 kts 355°
2026-05-04 03:30 33.88671 -116.88622 10478 ft 170 kts 356°
2026-05-04 03:30 33.89448 -116.88559 10479 ft 170 kts 355°
2026-05-04 03:30 33.90628 -116.88465 10473 ft 170 kts 355°
2026-05-04 03:31 33.92177 -116.88341 10466 ft 168 kts 355°
2026-05-04 03:31 33.93340 -116.88249 10460 ft 167 kts 355°
2026-05-04 03:31 33.94505 -116.88156 10451 ft 167 kts 355°
2026-05-04 03:31 33.95658 -116.88064 10447 ft 166 kts 355°
2026-05-04 03:32 33.96439 -116.88003 10446 ft 167 kts 355°
2026-05-04 03:32 33.97589 -116.87911 10438 ft 169 kts 355°
2026-05-04 03:32 33.98762 -116.87817 10431 ft 169 kts 355°
2026-05-04 03:32 33.99932 -116.87722 10419 ft 167 kts 356°
2026-05-04 03:33 34.01082 -116.87631 10417 ft 166 kts 355°
2026-05-04 03:33 34.02239 -116.87540 10407 ft 168 kts 356°
2026-05-04 03:33 34.03405 -116.87447 10408 ft 168 kts 356°
2026-05-04 03:33 34.04588 -116.87353 10403 ft 171 kts 356°
2026-05-04 03:34 34.05776 -116.87255 10402 ft 172 kts 356°
2026-05-04 03:34 34.06954 -116.87159 10386 ft 165 kts 356°
2026-05-04 03:34 34.08084 -116.87074 10405 ft 164 kts 355°
2026-05-04 03:34 34.09246 -116.86982 10408 ft 170 kts 356°
2026-05-04 03:35 34.10455 -116.86882 10388 ft 174 kts 357°
2026-05-04 03:35 34.11637 -116.86549 10372 ft 180 kts 27°
2026-05-04 03:35 34.12675 -116.85732 10377 ft 174 kts 28°
2026-05-04 03:35 34.13689 -116.84975 10369 ft 169 kts 28°
2026-05-04 03:36 34.14690 -116.84215 10362 ft 172 kts 28°
2026-05-04 03:36 34.15756 -116.83832 10353 ft 157 kts 346°
2026-05-04 03:36 34.16810 -116.84128 10319 ft 158 kts 336°
2026-05-04 03:36 34.17878 -116.84475 10210 ft 158 kts 335°
2026-05-04 03:37 34.18926 -116.84788 10207 ft 152 kts 341°
2026-05-04 03:37 34.19985 -116.84965 10017 ft 153 kts 341°
2026-05-04 03:37 34.21033 -116.85049 9803 ft 142 kts 347°
2026-05-04 03:37 34.22051 -116.85120 9084 ft 151 kts 352°
2026-05-04 03:38 34.23108 -116.85010 8563 ft 156 kts
2026-05-04 03:38 34.24127 -116.84574 8194 ft 154 kts 45°
2026-05-04 03:38 34.24540 -116.83514 8086 ft 129 kts 78°
2026-05-04 03:38 34.24707 -116.82465 7926 ft 121 kts 91°
2026-05-04 03:39 34.24740 -116.81418 7772 ft 135 kts 97°
2026-05-04 03:39 34.25077 -116.80398 7657 ft 140 kts 31°
2026-05-04 03:39 34.25982 -116.80125 7611 ft 133 kts
2026-05-04 03:39 34.26745 -116.80388 7502 ft 106 kts 288°
2026-05-04 03:40 34.26682 -116.81173 7368 ft 92 kts 249°
2026-05-04 03:40 34.26490 -116.81937 7229 ft 95 kts 250°
2026-05-04 03:40 34.26400 -116.82669 7096 ft 81 kts 261°
2026-05-04 03:40 34.26394 -116.83334 6985 ft 80 kts 261°
2026-05-04 03:41 34.26387 -116.84009 6857 ft 81 kts 264°
2026-05-04 03:41 34.26386 -116.84697 6710 ft 80 kts 258°
2026-05-04 03:41 34.26379 -116.85323 6673 ft 62 kts 269°
2026-05-04 03:41 34.26377 -116.85707 6673 ft 26 kts 269°
2026-05-04 03:42 34.26380 -116.85860 6670 ft 0 kts 270°
2026-05-04 03:42 34.26366 -116.85912 6669 ft 8 kts 202°
2026-05-04 03:42 34.26323 -116.85875 6669 ft 11 kts 90°
2026-05-04 03:43 34.26324 -116.85738 6674 ft 24 kts 88°
2026-05-04 03:43 34.26326 -116.85514 6672 ft 29 kts 89°
2026-05-04 03:43 34.26324 -116.85267 6672 ft 24 kts 90°
2026-05-04 03:43 34.26323 -116.85208 6667 ft 4 kts 116°
2026-05-04 03:44 34.26308 -116.85206 6666 ft 1 kts 181°
2026-05-04 03:44 34.26298 -116.85179 6671 ft 4 kts 360°
2026-05-04 03:44 34.26305 -116.85180 6670 ft 0 kts 359°